Aviation Digital Data Service (ADDS)

Output produced by TAFs form (1014 UTC 28 September 2016)
found at http://www.aviationweather.gov/adds/tafs/
 
KMRB 280836Z 2809/2906 VRB03KT P6SM BKN008 
     FM281400 09005KT P6SM BKN025 
     FM282100 09006KT 3SM SHRA BR OVC008